Terminal Aerodrome Forecast
Issued by NWS

Current Version | Previous Version | Graphics & Text | Print | Product List | Glossary On
Versions: 1 2 3 4 5 6 7 8 9 10 11 12 13 14 15 16 17 18 19 20 21 22
000
FTUS41 KRLX 221500 AAA
TAFCKB
TAF AMD
KCKB 221505Z 2215/2312 29012KT P6SM SHRA BKN030
     FM221700 25012G20KT P6SM SHRA BKN020
     FM222000 25012G23KT P6SM BKN035
     FM230100 27010G15KT P6SM BKN040
     FM230400 27006KT P6SM BKN040=

USA.gov is the U.S. government's official web portal to all federal, state and local government web resources and services.